Time;durP1;ratioP1;P1;durP2;ratioP2;P2;SDS_P1;SDS_P2;PMS_P1;PMS_P2;Temp;Humidity;BMP_temperature;BMP_pressure;BME280_temperature;BME280_humidity;BME280_pressure;Samples;Min_cycle;Max_cycle;Signal;HPM_P1;HPM_P2
2022/04/18 00:01:58;;;;;;;17.00;4.53;;;22.40;67.20;;;;;;5035178;28;20199;-73
2022/04/18 00:04:25;;;;;;;27.37;4.63;;;22.40;66.50;;;;;;5062141;28;20219;-73
2022/04/18 00:06:51;;;;;;;47.53;5.27;;;22.40;63.10;;;;;;5036102;28;20195;-73
2022/04/18 00:09:18;;;;;;;29.80;4.80;;;22.60;60.70;;;;;;5032915;28;20188;-72
2022/04/18 00:11:46;;;;;;;25.97;4.97;;;22.70;60.30;;;;;;5045579;28;20196;-72
2022/04/18 00:14:13;;;;;;;23.50;4.20;;;22.80;60.00;;;;;;5045356;28;20191;-72
2022/04/18 00:16:39;;;;;;;40.10;6.07;;;23.00;60.00;;;;;;5035188;28;20250;-71
2022/04/18 00:19:05;;;;;;;22.73;5.15;;;23.10;60.00;;;;;;5023878;28;20199;-70
2022/04/18 00:21:35;;;;;;;31.37;4.87;;;23.20;59.30;;;;;;5036258;28;20188;-69
2022/04/18 00:24:01;;;;;;;28.35;5.28;;;23.30;59.70;;;;;;5044245;28;20216;-70
2022/04/18 00:26:27;;;;;;;21.55;4.20;;;23.30;59.10;;;;;;5040127;28;20187;-70
2022/04/18 00:28:53;;;;;;;21.92;4.50;;;23.30;60.20;;;;;;5056133;28;20180;-70
2022/04/18 00:31:20;;;;;;;24.05;4.68;;;23.40;61.10;;;;;;5046442;28;20270;-70
2022/04/18 00:33:46;;;;;;;24.42;4.80;;;23.40;61.80;;;;;;5045474;28;20198;-70
2022/04/18 00:36:12;;;;;;;23.95;4.70;;;23.40;62.20;;;;;;5049306;28;20635;-70
2022/04/18 00:38:39;;;;;;;31.23;5.25;;;23.40;61.70;;;;;;5049857;28;20203;-69
2022/04/18 00:41:05;;;;;;;26.33;4.97;;;23.40;62.80;;;;;;5046584;28;20184;-70
2022/04/18 00:43:46;;;;;;;27.80;4.00;;;23.40;63.50;;;;;;5035576;28;20200;-69
2022/04/18 00:46:15;;;;;;;32.75;5.57;;;23.40;63.30;;;;;;5031509;28;20183;-69
2022/04/18 00:48:42;;;;;;;30.17;4.45;;;23.40;63.10;;;;;;5023155;28;20253;-70
2022/04/18 00:51:13;;;;;;;57.95;5.90;;;23.40;63.50;;;;;;5047678;28;20816;-70
2022/04/18 00:53:42;;;;;;;35.92;5.60;;;23.70;60.50;;;;;;5044889;28;20241;-70
2022/04/18 00:56:12;;;;;;;32.97;5.30;;;23.90;60.10;;;;;;5055217;28;20183;-70
2022/04/18 00:58:41;;;;;;;26.02;4.95;;;24.00;60.40;;;;;;5043512;28;20184;-69
2022/04/18 01:01:09;;;;;;;32.97;5.45;;;24.00;60.70;;;;;;5044633;28;20242;-69
2022/04/18 01:03:35;;;;;;;33.03;4.78;;;24.00;61.60;;;;;;5038072;28;20208;-70
2022/04/18 01:06:03;;;;;;;28.85;6.05;;;23.90;62.00;;;;;;5035350;28;20193;-72
2022/04/18 01:08:36;;;;;;;36.97;7.63;;;23.90;61.30;;;;;;5037176;28;20191;-72
2022/04/18 01:11:07;;;;;;;40.47;6.70;;;24.10;62.00;;;;;;5035676;28;20537;-69
2022/04/18 01:13:48;;;;;;;37.80;6.40;;;24.00;62.70;;;;;;5046168;28;20238;-70
2022/04/18 01:16:16;;;;;;;35.17;6.40;;;24.00;61.60;;;;;;5057029;28;20184;-70
2022/04/18 01:18:43;;;;;;;26.33;6.32;;;24.10;61.30;;;;;;5029213;28;20179;-69
2022/04/18 01:21:10;;;;;;;43.40;7.35;;;24.10;60.80;;;;;;5031914;28;20191;-69
2022/04/18 01:23:37;;;;;;;54.42;6.63;;;24.20;61.30;;;;;;5037253;28;20234;-69
2022/04/18 01:28:58;;;;;;;40.50;6.93;;;24.20;61.90;;;;;;5033013;28;20303;-70
2022/04/18 01:31:39;;;;;;;47.45;7.82;;;24.30;61.90;;;;;;5038018;28;20188;-71
2022/04/18 01:34:07;;;;;;;39.20;6.00;;;24.20;62.00;;;;;;5046959;28;20957;-71
2022/04/18 01:36:34;;;;;;;43.58;7.03;;;24.30;62.00;;;;;;5016664;28;20267;-70
2022/04/18 01:39:01;;;;;;;58.60;7.90;;;24.30;62.20;;;;;;5042081;28;20184;-69
2022/04/18 01:41:27;;;;;;;59.25;8.05;;;24.40;62.50;;;;;;5048834;28;20648;-70
2022/04/18 01:43:53;;;;;;;43.42;8.02;;;24.40;62.80;;;;;;5048497;28;20214;-69
2022/04/18 01:46:20;;;;;;;33.47;7.88;;;24.50;62.90;;;;;;5047593;28;20191;-69
2022/04/18 01:48:51;;;;;;;59.60;8.70;;;24.40;63.10;;;;;;5045039;28;20625;-69
2022/04/18 01:51:23;;;;;;;57.60;7.50;;;24.40;63.10;;;;;;5028847;28;20196;-69
2022/04/18 01:53:49;;;;;;;53.53;9.38;;;24.40;63.40;;;;;;5038719;28;20188;-70
2022/04/18 01:56:16;;;;;;;53.40;9.25;;;24.50;63.20;;;;;;5033211;28;20188;-70
2022/04/18 01:58:42;;;;;;;52.67;10.68;;;24.50;63.10;;;;;;5045197;28;20522;-69
2022/04/18 02:01:10;;;;;;;46.33;9.80;;;24.50;62.90;;;;;;5045928;28;20891;-70
2022/04/18 02:03:40;;;;;;;51.22;9.65;;;24.50;63.50;;;;;;5032604;28;20187;-70
2022/04/18 02:06:07;;;;;;;36.25;7.60;;;24.50;64.70;;;;;;5029087;28;20560;-70
2022/04/18 02:08:35;;;;;;;32.92;6.45;;;24.50;64.90;;;;;;5034734;28;20179;-70
2022/04/18 02:11:01;;;;;;;28.92;5.03;;;24.50;65.40;;;;;;5038787;28;20192;-70
2022/04/18 02:13:28;;;;;;;30.63;5.30;;;24.40;65.40;;;;;;5030984;28;20266;-70
2022/04/18 02:15:57;;;;;;;30.00;5.63;;;24.40;65.50;;;;;;5043909;28;20198;-69
2022/04/18 02:18:24;;;;;;;26.30;5.57;;;24.30;66.50;;;;;;5046724;28;20194;-69
2022/04/18 02:20:50;;;;;;;29.50;4.63;;;24.30;68.10;;;;;;5033558;28;20195;-70
2022/04/18 02:23:16;;;;;;;26.90;5.78;;;24.20;68.50;;;;;;5033142;28;20545;-70
2022/04/18 02:25:45;;;;;;;38.13;5.77;;;24.10;69.30;;;;;;5045973;28;20188;-71
2022/04/18 02:28:11;;;;;;;28.90;5.43;;;24.10;69.70;;;;;;5042115;28;20187;-70
2022/04/18 02:30:37;;;;;;;33.75;6.07;;;24.10;68.90;;;;;;5031446;28;20194;-69
2022/04/18 02:33:04;;;;;;;42.35;6.68;;;24.10;68.50;;;;;;5048034;28;20229;-69
2022/04/18 02:35:33;;;;;;;38.70;7.05;;;24.00;67.70;;;;;;5032890;28;20295;-70
2022/04/18 02:38:00;;;;;;;32.78;6.68;;;24.00;68.00;;;;;;5030595;28;21739;-69
2022/04/18 02:40:26;;;;;;;41.65;7.38;;;24.00;67.50;;;;;;5043976;28;20207;-70
2022/04/18 02:42:52;;;;;;;35.90;6.22;;;23.90;70.20;;;;;;5044596;28;20196;-70
2022/04/18 02:45:19;;;;;;;36.40;7.85;;;23.90;69.50;;;;;;5049264;28;20242;-69
2022/04/18 02:47:47;;;;;;;36.53;7.03;;;23.90;69.60;;;;;;5028866;28;20195;-70
2022/04/18 02:50:14;;;;;;;40.25;7.03;;;23.80;70.30;;;;;;5012080;28;20184;-70
2022/04/18 02:52:41;;;;;;;30.60;6.25;;;23.80;70.60;;;;;;5026714;28;20184;-70
2022/04/18 02:55:08;;;;;;;35.45;6.03;;;23.80;70.40;;;;;;5035419;28;20216;-70
2022/04/18 02:57:35;;;;;;;47.20;7.40;;;23.80;70.80;;;;;;5029715;28;20254;-69
2022/04/18 03:00:01;;;;;;;42.55;7.15;;;23.70;70.90;;;;;;5042282;28;20192;-69
2022/04/18 03:02:28;;;;;;;40.03;7.53;;;23.70;70.80;;;;;;5029979;28;20192;-69
2022/04/18 03:04:54;;;;;;;40.08;7.20;;;23.70;71.20;;;;;;5032171;28;20208;-70
2022/04/18 03:07:20;;;;;;;39.58;7.45;;;23.60;71.40;;;;;;5031833;28;20637;-70
2022/04/18 03:09:47;;;;;;;40.75;7.40;;;23.60;76.40;;;;;;5041736;28;20188;-69
2022/04/18 03:12:13;;;;;;;30.53;6.53;;;23.50;76.00;;;;;;5049161;28;20262;-70
2022/04/18 03:14:40;;;;;;;47.42;8.05;;;23.50;75.50;;;;;;5029076;28;20192;-70
2022/04/18 03:17:06;;;;;;;31.58;6.45;;;23.50;73.60;;;;;;5032603;28;20242;-70
2022/04/18 03:19:32;;;;;;;27.37;5.63;;;23.40;73.30;;;;;;5055040;28;20238;-70
2022/04/18 03:21:59;;;;;;;32.73;6.60;;;23.50;74.60;;;;;;5038494;28;20200;-70
2022/04/18 03:24:26;;;;;;;23.52;5.80;;;23.40;75.70;;;;;;5034174;28;20219;-70
2022/04/18 03:26:52;;;;;;;28.70;6.30;;;23.40;76.20;;;;;;5051389;28;20199;-70
2022/04/18 03:29:18;;;;;;;22.80;5.83;;;23.30;76.30;;;;;;5045233;28;20188;-70
2022/04/18 03:31:49;;;;;;;27.07;5.57;;;23.30;78.20;;;;;;5044822;28;20223;-70
2022/04/18 03:34:15;;;;;;;23.87;5.43;;;23.20;80.90;;;;;;5038901;28;20195;-70
2022/04/18 03:39:51;;;;;;;28.90;5.93;;;23.20;82.60;;;;;;5032729;28;20161;-69
2022/04/18 03:42:19;;;;;;;29.03;5.73;;;23.10;83.70;;;;;;5032254;28;20552;-70
2022/04/18 03:44:48;;;;;;;28.00;5.93;;;23.10;84.30;;;;;;5040833;28;20212;-70
2022/04/18 03:47:15;;;;;;;30.00;6.63;;;23.00;84.00;;;;;;5047992;28;20230;-70
2022/04/18 03:49:43;;;;;;;32.03;5.97;;;22.90;83.60;;;;;;5047565;28;20227;-70
2022/04/18 03:52:10;;;;;;;28.60;5.87;;;22.90;83.20;;;;;;5014321;28;20219;-71
2022/04/18 03:54:40;;;;;;;32.43;6.33;;;22.80;85.90;;;;;;5029981;28;20191;-70
2022/04/18 03:57:07;;;;;;;32.10;5.70;;;22.80;87.00;;;;;;5030633;28;20200;-70
2022/04/18 03:59:34;;;;;;;23.80;5.57;;;22.70;87.70;;;;;;5034986;28;20179;-70
2022/04/18 04:02:01;;;;;;;27.23;5.37;;;22.70;90.10;;;;;;5039370;28;20184;-69
2022/04/18 04:04:28;;;;;;;36.07;5.40;;;22.60;87.30;;;;;;5054627;28;20687;-69
2022/04/18 04:06:54;;;;;;;28.40;4.97;;;22.40;88.30;;;;;;5050048;28;20207;-72
2022/04/18 04:09:21;;;;;;;18.07;4.67;;;22.40;89.20;;;;;;5030864;28;20640;-72
2022/04/18 04:11:47;;;;;;;27.00;5.07;;;22.30;90.40;;;;;;5038177;28;20290;-72
2022/04/18 04:14:14;;;;;;;32.33;5.00;;;22.30;90.30;;;;;;5037293;28;20192;-72
2022/04/18 04:16:40;;;;;;;37.23;5.27;;;22.40;90.40;;;;;;5047917;28;20198;-72
2022/04/18 04:19:07;;;;;;;27.93;5.23;;;22.40;90.30;;;;;;5028946;28;20644;-72
2022/04/18 04:21:35;;;;;;;28.13;5.47;;;22.30;90.10;;;;;;5046175;28;20279;-71
2022/04/18 04:24:02;;;;;;;22.00;5.20;;;22.30;90.60;;;;;;5039234;28;20303;-72
2022/04/18 04:26:30;;;;;;;32.77;5.53;;;22.30;91.00;;;;;;5032933;28;20576;-72
2022/04/18 04:28:57;;;;;;;57.23;7.27;;;22.20;90.40;;;;;;5036273;28;20192;-72
2022/04/18 04:31:23;;;;;;;36.20;7.03;;;22.20;89.50;;;;;;5039482;28;20187;-72
2022/04/18 04:33:50;;;;;;;38.43;6.73;;;22.20;87.80;;;;;;5044498;28;20191;-72
2022/04/18 04:36:17;;;;;;;27.50;6.30;;;22.20;89.20;;;;;;5027780;28;20192;-72
2022/04/18 04:38:44;;;;;;;31.03;6.17;;;22.10;90.20;;;;;;5040333;28;20282;-72
2022/04/18 04:41:11;;;;;;;39.40;6.77;;;22.10;89.80;;;;;;5031225;28;20200;-71
2022/04/18 04:43:40;;;;;;;32.50;5.80;;;22.00;90.80;;;;;;5045832;28;20676;-72
2022/04/18 04:46:06;;;;;;;36.17;5.93;;;22.00;91.20;;;;;;5024186;28;20199;-73
2022/04/18 04:48:33;;;;;;;14.80;4.40;;;22.00;91.80;;;;;;5047577;28;20183;-72
2022/04/18 04:50:59;;;;;;;29.33;5.70;;;22.00;93.00;;;;;;5037409;28;20287;-72
2022/04/18 04:53:25;;;;;;;19.80;4.80;;;22.00;93.30;;;;;;5029719;28;20180;-72
2022/04/18 04:55:51;;;;;;;25.27;4.90;;;21.90;93.90;;;;;;5044235;28;20195;-72
2022/04/18 04:58:18;;;;;;;20.53;4.90;;;21.90;94.60;;;;;;5053592;28;20993;-72
2022/04/18 05:00:44;;;;;;;13.40;4.27;;;21.90;95.00;;;;;;5039540;28;20187;-72
2022/04/18 05:03:10;;;;;;;14.53;4.83;;;21.80;95.50;;;;;;5044940;28;20175;-72
2022/04/18 05:05:37;;;;;;;33.73;4.80;;;21.80;95.70;;;;;;5035558;28;20777;-72
2022/04/18 05:08:03;;;;;;;33.50;4.87;;;21.70;96.20;;;;;;5049180;28;20183;-72
2022/04/18 05:10:31;;;;;;;30.33;5.23;;;21.70;96.50;;;;;;5044871;28;20191;-72
2022/04/18 05:12:58;;;;;;;32.07;6.53;;;21.60;96.30;;;;;;5034101;28;20257;-72
2022/04/18 05:15:25;;;;;;;33.17;6.10;;;21.60;95.10;;;;;;5039901;28;20195;-72
2022/04/18 05:17:52;;;;;;;41.17;7.03;;;21.70;94.20;;;;;;5040533;28;20704;-72
2022/04/18 05:20:18;;;;;;;30.87;5.70;;;21.60;93.10;;;;;;5027297;28;20191;-73
2022/04/18 05:22:44;;;;;;;31.93;6.03;;;21.60;93.60;;;;;;5043300;28;20195;-72
2022/04/18 05:25:11;;;;;;;35.87;6.30;;;21.50;94.00;;;;;;5053821;28;20309;-72
2022/04/18 05:27:37;;;;;;;27.23;5.80;;;21.50;94.00;;;;;;5036876;28;20195;-72
2022/04/18 05:30:06;;;;;;;43.87;6.50;;;21.50;94.40;;;;;;5025771;28;20184;-72
2022/04/18 05:32:33;;;;;;;34.97;5.73;;;21.50;95.00;;;;;;5040413;28;20306;-72
2022/04/18 05:34:59;;;;;;;21.53;5.40;;;21.50;94.60;;;;;;5046882;28;20214;-72
2022/04/18 05:37:26;;;;;;;26.37;5.00;;;21.40;94.70;;;;;;5038739;28;20191;-72
2022/04/18 05:39:52;;;;;;;40.77;5.87;;;21.40;96.00;;;;;;5035626;28;20211;-73
2022/04/18 05:42:24;;;;;;;12.30;3.83;;;21.50;97.40;;;;;;5045545;28;20544;-72
2022/04/18 05:44:53;;;;;;;23.63;5.47;;;21.40;97.10;;;;;;5037471;28;20346;-72
2022/04/18 05:47:19;;;;;;;27.03;4.43;;;21.40;97.60;;;;;;5020108;28;20565;-72
2022/04/18 05:49:46;;;;;;;19.37;4.93;;;21.40;97.80;;;;;;5034008;28;20871;-72
2022/04/18 05:52:15;;;;;;;16.13;4.00;;;21.30;98.00;;;;;;5044871;28;20181;-72
2022/04/18 05:54:41;;;;;;;24.43;4.47;;;21.30;98.20;;;;;;5037233;28;20341;-72
2022/04/18 05:57:08;;;;;;;21.00;5.30;;;21.20;99.00;;;;;;5040063;28;20636;-72
2022/04/18 05:59:35;;;;;;;23.70;4.60;;;21.20;99.20;;;;;;5021310;28;20270;-72
2022/04/18 06:02:01;;;;;;;22.07;4.30;;;21.20;99.10;;;;;;5016170;28;20560;-72
2022/04/18 06:04:28;;;;;;;24.53;5.03;;;21.20;99.90;;;;;;5045118;28;20261;-72
2022/04/18 06:06:54;;;;;;;26.37;4.70;;;21.10;99.90;;;;;;5044837;28;20241;-72
2022/04/18 06:09:20;;;;;;;19.80;4.70;;;21.20;99.90;;;;;;5043542;28;20253;-72
2022/04/18 06:11:47;;;;;;;26.23;5.10;;;21.20;99.90;;;;;;5041247;28;20191;-72
2022/04/18 06:14:13;;;;;;;22.40;5.73;;;21.10;99.90;;;;;;5019015;28;20184;-72
2022/04/18 06:16:40;;;;;;;31.13;5.03;;;21.00;99.90;;;;;;5041681;28;20183;-72
2022/04/18 06:19:07;;;;;;;24.13;5.00;;;21.00;99.90;;;;;;5043651;28;20217;-72
2022/04/18 06:21:33;;;;;;;21.53;5.43;;;21.00;99.90;;;;;;5036356;28;20541;-72
2022/04/18 06:24:00;;;;;;;19.83;4.77;;;21.00;99.90;;;;;;5043720;28;20275;-72
2022/04/18 06:26:27;;;;;;;36.23;5.50;;;21.00;99.90;;;;;;5046676;28;20186;-72
2022/04/18 06:28:57;;;;;;;21.23;4.97;;;20.90;99.90;;;;;;5026268;28;20190;-72
2022/04/18 06:31:25;;;;;;;22.87;5.17;;;20.90;99.90;;;;;;5038761;28;20640;-72
2022/04/18 06:33:52;;;;;;;27.77;5.13;;;20.90;99.90;;;;;;5034464;28;20191;-72
2022/04/18 06:36:18;;;;;;;23.80;5.27;;;20.90;99.90;;;;;;5014301;28;20794;-72
2022/04/18 06:38:45;;;;;;;36.97;5.10;;;20.90;99.90;;;;;;5047411;28;20269;-72
2022/04/18 06:41:11;;;;;;;18.07;4.73;;;21.00;99.90;;;;;;5032409;28;20227;-72
2022/04/18 06:43:37;;;;;;;21.43;4.73;;;21.00;99.90;;;;;;5036544;28;20257;-72
2022/04/18 06:46:09;;;;;;;25.07;4.73;;;20.90;99.90;;;;;;5038375;28;20191;-72
2022/04/18 06:48:35;;;;;;;13.80;4.00;;;20.90;99.90;;;;;;5032822;28;20187;-72
2022/04/18 06:51:02;;;;;;;29.93;5.27;;;21.00;99.90;;;;;;5047638;28;20236;-72
2022/04/18 06:53:30;;;;;;;28.93;5.60;;;20.90;99.90;;;;;;5032096;28;20184;-72
2022/04/18 06:58:41;;;;;;;26.20;5.97;;;21.00;99.90;;;;;;5057981;28;20317;-72
2022/04/18 07:01:08;;;;;;;32.10;5.30;;;20.90;99.90;;;;;;5030770;28;20188;-72
2022/04/18 07:03:35;;;;;;;23.20;4.93;;;20.90;99.90;;;;;;5029375;28;20692;-72
2022/04/18 07:06:05;;;;;;;28.77;4.80;;;20.90;99.90;;;;;;5033707;28;20205;-72
2022/04/18 07:08:33;;;;;;;25.50;5.40;;;21.10;99.90;;;;;;5060703;28;21058;-73
2022/04/18 07:11:01;;;;;;;27.73;5.07;;;21.00;99.90;;;;;;5034194;28;20211;-73
2022/04/18 07:13:29;;;;;;;23.30;4.87;;;21.00;99.90;;;;;;5046618;28;20196;-74
2022/04/18 07:15:56;;;;;;;28.40;5.57;;;21.00;99.90;;;;;;5046338;28;20713;-74
2022/04/18 07:18:22;;;;;;;32.60;5.43;;;21.00;99.90;;;;;;5032750;28;20561;-74
2022/04/18 07:20:49;;;;;;;24.83;5.17;;;21.00;99.90;;;;;;5032974;28;20203;-77
2022/04/18 07:23:15;;;;;;;31.27;5.80;;;21.00;99.90;;;;;;5031576;28;20243;-75
2022/04/18 07:25:41;;;;;;;27.87;5.70;;;21.10;99.90;;;;;;5046005;28;20216;-74
2022/04/18 07:28:09;;;;;;;40.07;7.83;;;21.10;99.90;;;;;;5042860;28;20184;-75
2022/04/18 07:30:35;;;;;;;23.07;5.30;;;21.10;99.90;;;;;;5032166;28;20541;-74
2022/04/18 07:33:14;;;;;;;27.23;6.10;;;21.20;99.90;;;;;;5038161;28;20215;-75
2022/04/18 07:35:46;;;;;;;31.10;6.33;;;21.20;99.90;;;;;;5032368;28;20187;-75
2022/04/18 07:41:04;;;;;;;26.50;5.77;;;21.30;99.90;;;;;;5039652;28;20207;-74
2022/04/18 07:43:35;;;;;;;34.73;6.83;;;21.30;99.90;;;;;;5042397;28;20212;-74
2022/04/18 07:46:03;;;;;;;27.13;5.37;;;21.30;99.90;;;;;;5045034;28;21016;-74
2022/04/18 07:48:31;;;;;;;32.43;6.03;;;21.30;99.90;;;;;;5052116;28;20223;-74
2022/04/18 07:53:58;;;;;;;30.43;6.77;;;21.50;99.90;;;;;;5038869;28;20192;-75
2022/04/18 07:56:25;;;;;;;31.63;7.03;;;21.50;99.90;;;;;;5038352;28;20322;-74
2022/04/18 07:58:55;;;;;;;41.40;7.07;;;21.50;99.90;;;;;;5050111;28;20190;-74
2022/04/18 08:01:33;;;;;;;34.57;7.10;;;21.60;99.90;;;;;;5044483;28;20200;-74
2022/04/18 08:04:04;;;;;;;37.53;7.60;;;21.60;99.90;;;;;;5045937;28;20941;-74
2022/04/18 08:06:33;;;;;;;35.00;7.83;;;21.60;99.90;;;;;;5040696;28;20700;-75
2022/04/18 08:09:02;;;;;;;27.93;6.33;;;21.70;99.90;;;;;;5033008;28;20187;-74
2022/04/18 08:11:28;;;;;;;43.23;7.47;;;21.60;99.90;;;;;;5016450;28;20185;-75
2022/04/18 08:13:54;;;;;;;34.93;6.40;;;21.80;99.90;;;;;;5044452;28;20192;-75
2022/04/18 08:16:21;;;;;;;32.40;7.77;;;21.80;99.90;;;;;;5027877;28;20432;-75
2022/04/18 08:18:48;;;;;;;41.57;7.67;;;21.80;99.90;;;;;;5031304;28;20227;-75
2022/04/18 08:21:17;;;;;;;48.77;9.03;;;21.80;99.90;;;;;;5061896;28;20194;-75
2022/04/18 08:23:45;;;;;;;49.93;8.60;;;21.90;99.90;;;;;;5043052;28;20683;-75
2022/04/18 08:26:12;;;;;;;41.93;7.67;;;21.90;99.90;;;;;;5033529;28;20195;-75
2022/04/18 08:28:39;;;;;;;45.03;7.70;;;22.00;99.90;;;;;;5038167;28;20187;-75
2022/04/18 08:31:06;;;;;;;64.67;8.97;;;22.00;99.90;;;;;;5036076;28;20263;-74
2022/04/18 08:33:32;;;;;;;47.50;8.73;;;22.10;99.90;;;;;;5033245;28;20236;-76
2022/04/18 08:36:00;;;;;;;43.43;8.13;;;22.10;99.90;;;;;;5048105;28;20237;-73
2022/04/18 08:38:27;;;;;;;59.93;9.30;;;22.20;99.90;;;;;;5031630;28;20191;-73
2022/04/18 08:41:04;;;;;;;49.30;8.33;;;22.20;99.90;;;;;;5031649;28;20659;-73
2022/04/18 08:43:30;;;;;;;41.37;8.47;;;22.20;99.90;;;;;;5031568;28;20196;-72
2022/04/18 08:46:09;;;;;;;34.83;7.30;;;22.30;99.90;;;;;;5047590;28;20207;-73
2022/04/18 08:54:08;;;;;;;58.17;10.40;;;22.40;99.90;;;;;;5047571;28;20195;-73
2022/04/18 08:56:35;;;;;;;79.33;11.50;;;22.50;99.90;;;;;;5024439;28;20607;-72
2022/04/18 08:59:01;;;;;;;63.93;9.83;;;22.60;99.90;;;;;;5030528;28;20728;-72
2022/04/18 09:01:27;;;;;;;79.67;9.70;;;22.50;99.90;;;;;;5028163;28;20192;-72
2022/04/18 09:03:54;;;;;;;56.50;9.03;;;22.60;99.90;;;;;;5020370;28;20192;-73
2022/04/18 09:06:24;;;;;;;54.97;9.37;;;22.60;99.90;;;;;;5041920;28;20939;-72
2022/04/18 09:08:57;;;;;;;64.33;8.90;;;22.60;99.90;;;;;;5039637;28;20958;-72
2022/04/18 09:11:33;;;;;;;76.37;10.07;;;22.70;99.90;;;;;;5041081;28;20240;-72
2022/04/18 09:14:15;;;;;;;68.33;10.47;;;22.80;99.90;;;;;;5037594;28;20226;-72
2022/04/18 09:16:43;;;;;;;73.97;10.40;;;22.80;99.90;;;;;;5047286;28;20192;-72
2022/04/18 09:19:13;;;;;;;69.67;9.60;;;22.90;99.90;;;;;;5031504;28;20192;-73
2022/04/18 09:22:02;;;;;;;70.73;10.63;;;22.90;99.90;;;;;;5062017;28;20597;-72
2022/04/18 09:24:34;;;;;;;61.10;8.05;;;23.00;99.90;;;;;;5036473;28;20204;-72
2022/04/18 09:27:13;;;;;;;68.50;8.63;;;23.10;99.90;;;;;;5026764;28;20262;-72
2022/04/18 09:29:42;;;;;;;44.60;7.23;;;23.00;99.90;;;;;;5034642;28;20187;-72
2022/04/18 09:32:13;;;;;;;51.97;8.20;;;23.00;99.90;;;;;;5030146;28;20195;-72
2022/04/18 09:34:41;;;;;;;47.45;8.38;;;23.10;99.90;;;;;;5027000;28;20263;-72
2022/04/18 09:37:19;;;;;;;37.77;7.40;;;23.00;99.90;;;;;;5026290;28;20229;-72
2022/04/18 09:39:54;;;;;;;52.40;8.17;;;23.10;99.90;;;;;;5045239;28;20687;-73
2022/04/18 09:42:29;;;;;;;39.90;7.63;;;23.00;99.90;;;;;;5049162;28;20273;-72
2022/04/18 09:44:56;;;;;;;51.50;8.07;;;23.00;99.90;;;;;;5048897;28;20203;-72
2022/04/18 09:47:26;;;;;;;41.37;8.53;;;23.00;99.90;;;;;;5029930;28;20220;-72
2022/04/18 09:49:53;;;;;;;52.27;9.10;;;23.10;99.90;;;;;;5063335;28;20234;-72
2022/04/18 09:52:21;;;;;;;50.83;8.00;;;23.10;99.90;;;;;;5048045;28;20239;-72
2022/04/18 09:54:57;;;;;;;84.50;13.43;;;23.10;99.90;;;;;;5029803;28;20235;-72
2022/04/18 09:57:29;;;;;;;96.43;14.33;;;23.10;99.90;;;;;;5048009;28;20191;-72
2022/04/18 09:59:59;;;;;;;78.33;11.77;;;23.10;99.90;;;;;;5039454;28;20219;-72
2022/04/18 10:02:28;;;;;;;105.93;14.03;;;23.10;99.90;;;;;;5035804;28;20202;-73
2022/04/18 10:04:55;;;;;;;76.83;13.40;;;23.10;99.90;;;;;;5045055;28;20203;-72
2022/04/18 10:07:22;;;;;;;66.50;11.45;;;23.10;99.90;;;;;;5043686;28;20212;-72
2022/04/18 10:09:48;;;;;;;85.55;12.85;;;23.10;99.90;;;;;;5033926;28;20219;-72
2022/04/18 10:12:16;;;;;;;96.97;14.47;;;23.10;99.90;;;;;;5030679;28;20214;-72
2022/04/18 10:14:44;;;;;;;81.80;14.37;;;23.10;99.90;;;;;;5032539;28;20637;-72
2022/04/18 10:17:12;;;;;;;71.83;12.43;;;23.00;99.90;;;;;;5043580;28;20180;-72
2022/04/18 10:20:24;;;;;;;85.27;13.77;;;23.00;99.90;;;;;;5054192;28;20183;-72
2022/04/18 10:23:15;;;;;;;72.67;12.87;;;22.90;99.90;;;;;;5048652;28;20188;-72
2022/04/18 10:26:33;;;;;;;68.73;13.73;;;22.90;99.90;;;;;;5019565;28;20200;-74
2022/04/18 10:29:30;;;;;;;83.13;13.80;;;22.90;99.90;;;;;;5033894;28;20184;-75
2022/04/18 10:32:03;;;;;;;65.73;12.13;;;22.80;99.90;;;;;;5051826;28;20238;-75
2022/04/18 10:34:33;;;;;;;62.63;11.70;;;22.80;99.90;;;;;;5036236;28;20190;-74
2022/04/18 10:37:04;;;;;;;75.77;11.70;;;22.80;99.90;;;;;;5025598;28;20596;-74
2022/04/18 10:39:37;;;;;;;40.50;10.13;;;22.90;99.90;;;;;;5045992;28;20184;-75
2022/04/18 10:42:23;;;;;;;76.67;11.53;;;22.90;99.90;;;;;;5034653;28;20253;-72
2022/04/18 10:45:14;;;;;;;66.13;10.93;;;22.90;99.90;;;;;;5016804;28;20210;-72
2022/04/18 10:48:09;;;;;;;66.63;11.27;;;22.90;99.90;;;;;;5035396;28;20694;-72
2022/04/18 10:50:48;;;;;;;71.77;11.47;;;22.70;99.90;;;;;;5035767;28;20192;-72
2022/04/18 10:53:26;;;;;;;81.93;12.47;;;22.60;99.90;;;;;;5033640;28;20180;-71
2022/04/18 10:55:52;;;;;;;65.20;12.07;;;22.60;99.90;;;;;;5032582;28;20250;-71
2022/04/18 10:58:36;;;;;;;65.20;10.43;;;22.50;99.90;;;;;;5033866;28;20188;-72
2022/04/18 11:01:08;;;;;;;44.50;9.13;;;22.60;99.90;;;;;;5021484;28;20187;-72
2022/04/18 11:03:44;;;;;;;59.30;10.13;;;22.50;99.90;;;;;;5029637;28;20192;-71
2022/04/18 11:06:17;;;;;;;53.23;8.83;;;22.40;99.90;;;;;;5033041;28;20192;-72
2022/04/18 11:09:08;;;;;;;71.07;10.03;;;22.40;99.90;;;;;;5036154;28;20183;-71
2022/04/18 11:12:05;;;;;;;57.47;9.60;;;22.50;99.90;;;;;;5045297;28;20275;-71
2022/04/18 11:15:10;;;;;;;61.20;9.27;;;22.40;99.90;;;;;;5039995;28;20195;-72
2022/04/18 11:17:42;;;;;;;47.47;9.17;;;22.40;99.90;;;;;;5016787;28;20599;-72
2022/04/18 11:20:28;;;;;;;52.07;8.87;;;22.50;99.90;;;;;;5046076;28;20196;-72
2022/04/18 11:23:27;;;;;;;60.03;10.83;;;22.50;99.90;;;;;;5032406;28;20180;-72
2022/04/18 11:26:03;;;;;;;71.77;11.37;;;22.50;99.90;;;;;;5050067;28;20676;-71
2022/04/18 11:28:43;;;;;;;71.13;11.43;;;22.50;99.90;;;;;;5046734;28;20687;-72
2022/04/18 11:31:30;;;;;;;58.60;10.80;;;22.50;99.90;;;;;;5041100;28;20194;-72
2022/04/18 11:34:07;;;;;;;95.10;14.50;;;22.60;99.90;;;;;;5048757;28;20180;-72
2022/04/18 11:36:35;;;;;;;71.77;12.77;;;22.60;99.90;;;;;;5032324;28;20275;-72
2022/04/18 11:39:11;;;;;;;76.00;12.87;;;22.70;99.90;;;;;;5038702;28;20236;-71
2022/04/18 11:41:41;;;;;;;61.87;12.37;;;22.60;99.90;;;;;;5041924;28;20222;-71
2022/04/18 11:44:08;;;;;;;79.80;13.77;;;22.60;99.90;;;;;;5031314;28;20208;-72
2022/04/18 11:46:35;;;;;;;68.43;12.93;;;22.50;99.90;;;;;;5061936;28;20191;-71
2022/04/18 11:49:04;;;;;;;79.80;14.23;;;22.50;99.90;;;;;;5039952;28;20271;-72
2022/04/18 11:51:42;;;;;;;64.80;13.03;;;22.40;99.90;;;;;;5048858;28;20192;-72
2022/04/18 11:54:09;;;;;;;89.53;14.17;;;22.40;99.90;;;;;;5050755;28;20216;-71
2022/04/18 11:56:35;;;;;;;68.67;13.70;;;22.30;99.90;;;;;;5021717;28;20187;-74
2022/04/18 11:59:05;;;;;;;85.90;13.83;;;22.30;99.90;;;;;;5046854;28;20817;-73
2022/04/18 12:07:03;;;;;;;72.03;14.03;;;21.90;99.90;;;;;;5047312;28;20386;-74
2022/04/18 12:09:31;;;;;;;69.20;13.10;;;21.80;99.90;;;;;;5045022;28;20772;-74
2022/04/18 12:11:58;;;;;;;87.17;13.17;;;21.90;99.90;;;;;;5032824;28;20202;-74
2022/04/18 12:14:30;;;;;;;85.07;14.30;;;21.90;99.90;;;;;;5054911;28;20198;-74
2022/04/18 12:17:01;;;;;;;66.27;13.10;;;22.00;99.90;;;;;;5044619;28;20195;-74
2022/04/18 12:19:31;;;;;;;63.27;13.17;;;22.00;99.90;;;;;;5038669;28;20279;-74
2022/04/18 12:21:57;;;;;;;74.27;13.73;;;22.10;99.90;;;;;;5034299;28;20222;-74
2022/04/18 12:24:25;;;;;;;67.60;12.70;;;22.10;99.90;;;;;;5032592;28;20207;-74
2022/04/18 12:26:55;;;;;;;80.20;12.77;;;22.10;99.90;;;;;;5049629;28;20572;-74
2022/04/18 12:29:23;;;;;;;75.43;13.13;;;22.10;99.90;;;;;;5051384;28;20627;-74
2022/04/18 12:31:56;;;;;;;79.20;14.03;;;22.00;99.90;;;;;;5031953;28;20196;-74
2022/04/18 12:34:23;;;;;;;81.40;14.00;;;22.00;99.90;;;;;;5035745;28;20196;-74
2022/04/18 12:37:01;;;;;;;65.70;13.00;;;21.80;99.90;;;;;;5034521;28;20188;-75
2022/04/18 12:39:28;;;;;;;85.17;13.63;;;21.90;99.90;;;;;;5042038;28;20270;-75
2022/04/18 12:42:08;;;;;;;64.50;13.60;;;21.80;99.90;;;;;;5037555;28;20348;-74
2022/04/18 12:44:36;;;;;;;71.10;13.47;;;21.70;99.90;;;;;;5037082;28;20680;-74
2022/04/18 12:47:20;;;;;;;88.47;13.90;;;21.60;99.90;;;;;;5018811;28;20190;-74
2022/04/18 12:50:09;;;;;;;67.27;13.27;;;21.50;99.90;;;;;;5051032;28;20248;-74
2022/04/18 12:52:46;;;;;;;81.40;13.53;;;21.40;99.90;;;;;;5058275;28;20869;-74
2022/04/18 12:55:26;;;;;;;82.77;13.43;;;21.30;99.90;;;;;;5039949;28;20184;-75
2022/04/18 12:57:54;;;;;;;87.83;13.73;;;21.40;99.90;;;;;;5029760;28;20254;-74
2022/04/18 13:00:22;;;;;;;77.77;13.93;;;21.40;99.90;;;;;;5040509;28;20230;-75
2022/04/18 13:03:01;;;;;;;84.27;14.27;;;21.40;99.90;;;;;;5046762;28;20212;-75
2022/04/18 13:05:34;;;;;;;61.07;11.33;;;21.30;99.90;;;;;;5034953;28;20646;-75
2022/04/18 13:08:07;;;;;;;83.70;14.07;;;21.30;99.90;;;;;;5030009;28;20182;-75
2022/04/18 13:10:38;;;;;;;65.73;13.67;;;21.20;99.90;;;;;;5041283;28;20555;-74
2022/04/18 13:13:22;;;;;;;75.57;13.37;;;21.00;99.90;;;;;;5050206;28;20567;-75